Time;durP1;ratioP1;P1;durP2;ratioP2;P2;SDS_P1;SDS_P2;PMS_P1;PMS_P2;Temp;Humidity;BMP_temperature;BMP_pressure;BME280_temperature;BME280_humidity;BME280_pressure;Samples;Min_cycle;Max_cycle;Signal;HPM_P1;HPM_P2
2022/07/29 00:01:52;;;;;;;2.70;2.50;;;15.80;99.90;;;;;;5036282;28;20191;-74
2022/07/29 00:04:18;;;;;;;2.93;2.37;;;15.80;99.90;;;;;;5035184;28;20176;-74
2022/07/29 00:06:44;;;;;;;3.20;2.90;;;15.80;99.90;;;;;;5036792;28;20410;-74
2022/07/29 00:09:09;;;;;;;3.10;2.57;;;15.80;99.90;;;;;;5035415;28;20447;-74
2022/07/29 00:11:35;;;;;;;3.07;2.77;;;15.70;99.90;;;;;;5034826;28;20164;-74
2022/07/29 00:14:01;;;;;;;4.30;2.77;;;15.70;99.90;;;;;;5025307;28;20172;-74
2022/07/29 00:16:26;;;;;;;2.70;2.50;;;15.70;99.90;;;;;;5015884;28;20187;-74
2022/07/29 00:18:52;;;;;;;3.63;3.00;;;15.60;99.90;;;;;;5014623;28;20204;-73
2022/07/29 00:21:17;;;;;;;3.40;3.10;;;15.70;99.90;;;;;;5015330;28;20181;-73
2022/07/29 00:23:43;;;;;;;5.93;3.90;;;15.60;99.90;;;;;;5015016;28;20176;-73
2022/07/29 00:26:08;;;;;;;9.60;3.13;;;15.60;99.90;;;;;;5016604;28;20215;-73
2022/07/29 00:28:34;;;;;;;2.43;2.23;;;15.60;99.90;;;;;;5017707;28;20662;-74
2022/07/29 00:31:00;;;;;;;4.13;2.43;;;15.50;99.90;;;;;;5017705;28;20255;-73
2022/07/29 00:33:26;;;;;;;7.03;3.17;;;15.50;99.90;;;;;;5014751;28;20169;-74
2022/07/29 00:35:51;;;;;;;5.17;3.10;;;15.40;99.90;;;;;;5014789;28;20415;-73
2022/07/29 00:38:19;;;;;;;4.23;2.70;;;15.50;99.90;;;;;;5014992;28;20383;-74
2022/07/29 00:40:45;;;;;;;4.80;3.17;;;15.40;99.90;;;;;;5014202;28;20255;-74
2022/07/29 00:43:13;;;;;;;4.80;3.87;;;15.40;99.90;;;;;;5013645;28;20419;-73
2022/07/29 00:45:39;;;;;;;5.00;3.23;;;15.40;99.90;;;;;;5014085;28;20553;-74
2022/07/29 00:48:05;;;;;;;3.70;3.23;;;15.30;99.90;;;;;;5013719;28;20520;-74
2022/07/29 00:50:32;;;;;;;5.80;3.67;;;15.40;99.90;;;;;;5014526;28;20417;-74
2022/07/29 00:52:58;;;;;;;6.97;3.17;;;15.30;99.90;;;;;;5013874;28;20936;-73
2022/07/29 00:55:24;;;;;;;2.63;2.43;;;15.40;99.90;;;;;;5013637;28;20419;-74
2022/07/29 00:57:50;;;;;;;3.90;2.63;;;15.40;99.90;;;;;;5014133;28;20427;-74
2022/07/29 01:00:19;;;;;;;4.30;2.90;;;15.40;99.90;;;;;;5014338;28;20287;-73
2022/07/29 01:02:48;;;;;;;4.17;2.87;;;15.40;99.90;;;;;;5013995;28;20996;-73
2022/07/29 01:05:14;;;;;;;5.13;3.27;;;15.30;99.90;;;;;;5013854;28;20459;-74
2022/07/29 01:07:41;;;;;;;4.37;3.30;;;15.30;99.90;;;;;;5014413;28;20427;-74
2022/07/29 01:10:08;;;;;;;3.10;2.73;;;15.20;99.90;;;;;;5014785;28;20478;-74
2022/07/29 01:12:36;;;;;;;3.27;3.00;;;15.20;99.90;;;;;;5014525;28;20426;-73
2022/07/29 01:15:04;;;;;;;7.80;2.50;;;15.10;99.90;;;;;;5018361;28;20447;-74
2022/07/29 01:17:40;;;;;;;5.93;3.30;;;15.10;99.90;;;;;;5024302;28;20411;-74
2022/07/29 01:20:35;;;;;;;3.10;2.80;;;15.10;99.90;;;;;;5031443;23;20854;-65
2022/07/29 01:23:26;;;;;;;6.60;3.40;;;15.10;99.90;;;;;;4989380;28;20448;-64
2022/07/29 01:26:00;;;;;;;4.20;2.60;;;15.10;99.90;;;;;;4992155;28;20578;-64
2022/07/29 01:29:11;;;;;;;3.80;3.10;;;15.00;99.90;;;;;;4992407;28;20423;-64
2022/07/29 01:31:48;;;;;;;3.93;2.60;;;15.00;99.90;;;;;;4976705;28;20495;-64
2022/07/29 01:34:38;;;;;;;2.90;2.67;;;15.00;99.90;;;;;;4992338;28;20392;-65
2022/07/29 01:37:18;;;;;;;6.03;3.00;;;14.90;99.90;;;;;;4992200;28;20926;-64
2022/07/29 01:39:47;;;;;;;3.97;2.10;;;14.90;99.90;;;;;;4992256;28;20416;-65
2022/07/29 01:42:31;;;;;;;3.87;2.23;;;14.80;99.90;;;;;;4993053;28;20539;-65
2022/07/29 01:45:02;;;;;;;5.83;2.90;;;14.80;99.90;;;;;;4989185;28;20462;-64
2022/07/29 01:47:37;;;;;;;4.57;2.97;;;14.80;99.90;;;;;;4991873;28;20464;-64
2022/07/29 01:50:07;;;;;;;4.13;2.90;;;14.80;99.90;;;;;;4991889;28;20452;-64
2022/07/29 01:53:03;;;;;;;3.10;2.67;;;14.80;99.90;;;;;;4992054;28;20404;-65
2022/07/29 01:55:34;;;;;;;3.63;3.20;;;14.70;99.90;;;;;;4983098;28;20427;-64
2022/07/29 01:58:02;;;;;;;3.17;2.80;;;14.70;99.90;;;;;;4991642;28;20454;-65
2022/07/29 02:00:31;;;;;;;3.00;2.70;;;14.70;99.90;;;;;;4992661;28;20731;-65
2022/07/29 02:03:00;;;;;;;2.03;1.83;;;14.60;99.90;;;;;;4991759;28;20980;-64
2022/07/29 02:05:28;;;;;;;4.13;2.50;;;14.60;99.90;;;;;;4991004;28;20452;-63
2022/07/29 02:07:55;;;;;;;2.93;2.73;;;14.60;99.90;;;;;;4991411;28;20408;-63
2022/07/29 02:10:23;;;;;;;8.40;2.80;;;14.60;99.90;;;;;;4991278;28;20404;-64
2022/07/29 02:12:50;;;;;;;3.23;1.93;;;14.50;99.90;;;;;;4991600;28;20440;-64
2022/07/29 02:15:17;;;;;;;3.83;2.97;;;14.40;99.90;;;;;;4991121;28;20515;-64
2022/07/29 02:17:53;;;;;;;3.87;3.47;;;14.50;99.90;;;;;;4991208;28;20419;-64
2022/07/29 02:20:19;;;;;;;4.20;3.07;;;14.50;99.90;;;;;;4991228;28;20439;-64
2022/07/29 02:22:46;;;;;;;2.90;2.60;;;14.40;99.90;;;;;;4991319;28;20412;-64
2022/07/29 02:25:13;;;;;;;3.70;3.00;;;14.40;99.90;;;;;;4990817;28;20188;-64
2022/07/29 02:27:41;;;;;;;3.90;2.20;;;14.40;99.90;;;;;;4991348;28;20550;-64
2022/07/29 02:30:07;;;;;;;2.60;2.40;;;14.30;99.90;;;;;;4991466;28;20431;-64
2022/07/29 02:32:37;;;;;;;4.63;2.17;;;14.40;99.90;;;;;;4994161;28;20407;-64
2022/07/29 02:35:03;;;;;;;2.40;2.20;;;14.40;99.90;;;;;;4995160;28;20404;-64
2022/07/29 02:37:30;;;;;;;6.17;3.30;;;14.40;99.90;;;;;;4995212;28;20407;-64
2022/07/29 02:39:57;;;;;;;3.27;2.97;;;14.40;99.90;;;;;;4995108;28;20718;-64
2022/07/29 02:42:26;;;;;;;2.33;2.07;;;14.40;99.90;;;;;;4995214;28;20423;-64
2022/07/29 02:44:51;;;;;;;3.60;2.20;;;14.30;99.90;;;;;;4994575;28;20578;-65
2022/07/29 02:47:21;;;;;;;3.30;3.00;;;14.30;99.90;;;;;;4995087;28;20447;-64
2022/07/29 02:49:59;;;;;;;4.33;3.57;;;14.40;99.90;;;;;;4994855;28;20334;-64
2022/07/29 02:52:35;;;;;;;3.20;2.90;;;14.40;99.90;;;;;;4995131;28;20424;-65
2022/07/29 02:55:18;;;;;;;3.90;2.60;;;14.40;99.90;;;;;;4994850;28;20421;-64
2022/07/29 02:57:54;;;;;;;2.57;2.37;;;14.40;99.90;;;;;;4995094;28;20910;-64
2022/07/29 03:00:21;;;;;;;4.30;3.20;;;14.40;99.90;;;;;;4995159;28;20408;-64
2022/07/29 03:02:52;;;;;;;3.23;2.60;;;14.40;99.90;;;;;;4994711;28;20487;-64
2022/07/29 03:05:20;;;;;;;3.07;2.20;;;14.40;99.90;;;;;;4994621;28;20456;-64
2022/07/29 03:07:49;;;;;;;5.67;2.70;;;14.40;99.90;;;;;;4994750;28;20403;-64
2022/07/29 03:10:15;;;;;;;3.30;2.90;;;14.40;99.90;;;;;;4994527;28;20527;-65
2022/07/29 03:12:42;;;;;;;5.53;2.53;;;14.50;99.90;;;;;;4994690;28;20400;-64
2022/07/29 03:15:08;;;;;;;5.10;3.43;;;14.60;99.90;;;;;;4994188;28;20495;-64
2022/07/29 03:17:34;;;;;;;4.53;2.57;;;14.50;99.90;;;;;;4994263;28;20412;-64
2022/07/29 03:20:00;;;;;;;2.10;2.00;;;14.60;99.90;;;;;;4994277;28;20450;-64
2022/07/29 03:22:26;;;;;;;6.73;3.50;;;14.70;99.90;;;;;;4994428;28;20712;-64
2022/07/29 03:24:52;;;;;;;2.80;2.60;;;14.60;99.90;;;;;;4994044;28;20447;-64
2022/07/29 03:27:17;;;;;;;4.87;2.60;;;14.70;99.90;;;;;;4994713;28;20415;-65
2022/07/29 03:29:43;;;;;;;4.00;3.03;;;14.70;99.90;;;;;;4994553;28;20196;-64
2022/07/29 03:32:08;;;;;;;3.17;2.87;;;14.70;99.90;;;;;;4994634;28;20219;-64
2022/07/29 03:34:36;;;;;;;4.40;2.60;;;14.70;99.90;;;;;;4994383;28;20188;-64
2022/07/29 03:37:01;;;;;;;4.87;2.83;;;14.80;99.90;;;;;;4994711;28;20538;-64
2022/07/29 03:39:31;;;;;;;4.93;2.40;;;14.70;99.90;;;;;;4994555;28;20428;-64
2022/07/29 03:41:59;;;;;;;4.23;2.50;;;14.70;99.90;;;;;;4994494;28;20639;-64
2022/07/29 03:44:27;;;;;;;5.53;2.50;;;14.70;99.90;;;;;;4992785;28;20454;-64
2022/07/29 03:46:55;;;;;;;4.63;2.87;;;14.70;99.90;;;;;;4993816;28;20755;-64
2022/07/29 03:49:23;;;;;;;3.13;2.80;;;14.80;99.90;;;;;;4993965;28;20428;-64
2022/07/29 03:51:48;;;;;;;6.47;2.97;;;14.80;99.90;;;;;;4993962;28;20436;-66
2022/07/29 03:54:14;;;;;;;2.63;2.13;;;14.80;99.90;;;;;;4993808;28;20927;-65
2022/07/29 03:56:44;;;;;;;4.50;4.00;;;14.80;99.90;;;;;;4993485;28;20251;-66
2022/07/29 03:59:10;;;;;;;4.80;2.63;;;14.80;99.90;;;;;;4993832;28;20216;-64
2022/07/29 04:01:37;;;;;;;3.33;2.43;;;14.90;99.90;;;;;;4993688;28;20408;-64
2022/07/29 04:04:04;;;;;;;4.33;3.10;;;14.90;99.90;;;;;;4993577;28;20823;-64
2022/07/29 04:06:41;;;;;;;3.50;2.97;;;15.00;99.90;;;;;;4993502;28;20459;-64
2022/07/29 04:09:06;;;;;;;6.17;2.80;;;14.90;99.90;;;;;;4993620;28;20967;-64
2022/07/29 04:11:32;;;;;;;3.23;2.70;;;14.90;99.90;;;;;;4993815;28;20408;-64
2022/07/29 04:13:58;;;;;;;4.47;2.53;;;15.00;99.90;;;;;;4993795;28;20256;-64
2022/07/29 04:16:23;;;;;;;4.87;3.07;;;15.00;99.90;;;;;;4993153;28;20491;-64
2022/07/29 04:18:49;;;;;;;2.77;2.57;;;15.10;99.90;;;;;;4993341;28;20196;-64
2022/07/29 04:21:15;;;;;;;3.10;2.47;;;15.20;99.90;;;;;;4993419;28;20562;-64
2022/07/29 04:23:40;;;;;;;5.33;2.30;;;15.30;99.90;;;;;;4993412;28;20199;-65
2022/07/29 04:26:09;;;;;;;3.37;2.37;;;15.30;99.90;;;;;;4993166;28;20204;-65
2022/07/29 04:28:35;;;;;;;5.50;2.43;;;15.40;99.90;;;;;;4993254;28;20510;-64
2022/07/29 04:31:00;;;;;;;5.20;2.83;;;15.40;99.90;;;;;;4993217;28;20443;-65
2022/07/29 04:33:26;;;;;;;2.47;2.27;;;15.50;99.90;;;;;;4993059;28;20173;-65
2022/07/29 04:35:51;;;;;;;4.40;2.20;;;15.50;99.90;;;;;;4993037;28;20493;-65
2022/07/29 04:38:17;;;;;;;3.67;3.30;;;15.50;99.90;;;;;;4993016;28;20213;-65
2022/07/29 04:40:42;;;;;;;2.70;2.27;;;15.50;99.90;;;;;;4993062;28;20187;-65
2022/07/29 04:43:08;;;;;;;4.10;2.83;;;15.70;99.90;;;;;;4993370;28;20188;-65
2022/07/29 04:45:33;;;;;;;3.10;2.20;;;15.80;99.90;;;;;;4992727;28;20205;-66
2022/07/29 04:47:59;;;;;;;3.00;2.70;;;15.80;99.90;;;;;;4992655;28;20174;-64
2022/07/29 04:50:25;;;;;;;4.40;2.40;;;15.80;99.90;;;;;;4993215;28;20229;-65
2022/07/29 04:52:50;;;;;;;2.83;2.53;;;15.90;99.90;;;;;;4992705;28;20169;-66
2022/07/29 04:55:16;;;;;;;2.93;2.63;;;15.90;99.90;;;;;;4992208;28;20593;-66
2022/07/29 04:57:41;;;;;;;3.43;2.80;;;15.90;99.90;;;;;;4991368;28;20201;-64
2022/07/29 05:00:08;;;;;;;2.80;2.47;;;15.90;99.90;;;;;;4992372;28;20251;-64
2022/07/29 05:02:33;;;;;;;2.60;2.40;;;15.90;99.90;;;;;;4992729;28;20169;-65
2022/07/29 05:04:59;;;;;;;4.37;2.93;;;15.90;99.90;;;;;;4992469;28;20451;-64
2022/07/29 05:07:24;;;;;;;4.30;2.33;;;16.00;99.90;;;;;;4992717;28;20173;-64
2022/07/29 05:09:50;;;;;;;3.63;2.90;;;16.10;99.90;;;;;;4992621;28;20190;-65
2022/07/29 05:12:15;;;;;;;2.30;2.10;;;16.10;99.90;;;;;;4992747;28;20170;-65
2022/07/29 05:14:41;;;;;;;2.63;2.40;;;16.20;99.90;;;;;;4992596;28;20177;-64
2022/07/29 05:17:06;;;;;;;2.63;2.20;;;16.30;99.90;;;;;;4992386;28;20262;-64
2022/07/29 05:19:32;;;;;;;2.13;2.00;;;16.50;99.90;;;;;;4992177;28;20213;-66
2022/07/29 05:21:57;;;;;;;3.73;2.93;;;16.70;99.90;;;;;;4992243;28;20550;-64
2022/07/29 05:24:23;;;;;;;4.40;2.63;;;16.90;99.90;;;;;;4992152;28;20178;-65
2022/07/29 05:26:48;;;;;;;5.13;2.17;;;16.90;99.90;;;;;;4992027;28;20667;-65
2022/07/29 05:29:14;;;;;;;4.80;2.30;;;17.20;99.90;;;;;;4991913;28;20198;-64
2022/07/29 05:31:39;;;;;;;3.40;2.37;;;17.40;99.90;;;;;;4991992;28;20232;-65
2022/07/29 05:34:05;;;;;;;7.20;3.30;;;17.50;99.90;;;;;;4992081;28;20256;-64
2022/07/29 05:36:31;;;;;;;2.40;2.20;;;17.30;99.90;;;;;;4991745;28;20256;-65
2022/07/29 05:38:57;;;;;;;2.57;2.00;;;17.30;99.90;;;;;;4991689;28;20204;-64
2022/07/29 05:41:22;;;;;;;4.53;3.27;;;17.40;99.90;;;;;;4991623;28;20179;-65
2022/07/29 05:43:48;;;;;;;6.80;3.00;;;17.40;99.90;;;;;;4991584;28;20502;-65
2022/07/29 05:46:14;;;;;;;10.60;6.30;;;17.50;99.90;;;;;;4991194;28;20270;-65
2022/07/29 05:48:39;;;;;;;6.57;4.40;;;17.40;99.90;;;;;;4991630;28;20194;-65
2022/07/29 05:51:05;;;;;;;2.63;2.43;;;17.30;99.90;;;;;;4991837;28;20172;-65
2022/07/29 05:53:31;;;;;;;12.90;9.30;;;17.20;99.90;;;;;;4991519;28;20593;-65
2022/07/29 05:55:56;;;;;;;3.90;3.10;;;17.10;99.90;;;;;;4991161;28;20233;-65
2022/07/29 05:58:22;;;;;;;2.63;2.13;;;17.20;99.90;;;;;;4991391;28;20580;-65
2022/07/29 06:00:48;;;;;;;2.87;2.23;;;17.30;99.90;;;;;;4991667;28;20179;-65
2022/07/29 06:03:13;;;;;;;4.83;2.90;;;17.40;99.90;;;;;;4991358;28;20253;-65
2022/07/29 06:05:39;;;;;;;6.10;3.70;;;17.60;99.90;;;;;;4990679;28;20269;-65
2022/07/29 06:08:07;;;;;;;9.77;5.80;;;17.80;99.90;;;;;;4991173;28;20295;-65
2022/07/29 06:10:35;;;;;;;3.80;2.47;;;17.80;99.90;;;;;;4991303;28;20531;-65
2022/07/29 06:13:00;;;;;;;3.60;2.70;;;18.00;99.90;;;;;;4991311;28;20771;-65
2022/07/29 06:15:26;;;;;;;4.20;2.70;;;18.30;99.90;;;;;;4991102;28;20415;-64
2022/07/29 06:17:52;;;;;;;2.47;1.77;;;18.30;99.90;;;;;;4991246;28;20172;-65
2022/07/29 06:20:18;;;;;;;3.20;2.10;;;18.60;99.90;;;;;;4991013;28;20201;-65
2022/07/29 06:22:43;;;;;;;2.73;2.30;;;19.30;99.90;;;;;;5005454;28;20921;-64
2022/07/29 06:25:09;;;;;;;7.97;3.77;;;20.00;99.90;;;;;;5010325;28;20590;-66
2022/07/29 06:27:35;;;;;;;5.37;2.60;;;20.80;99.90;;;;;;5010879;28;20712;-65
2022/07/29 06:30:01;;;;;;;4.93;2.40;;;20.90;99.90;;;;;;5010778;28;20219;-65
2022/07/29 06:32:27;;;;;;;2.80;2.00;;;20.90;99.90;;;;;;5010600;28;20281;-65
2022/07/29 06:34:52;;;;;;;6.63;2.30;;;21.10;99.90;;;;;;5010449;28;20431;-65
2022/07/29 06:37:18;;;;;;;7.30;2.67;;;20.70;99.90;;;;;;5010749;28;20178;-64
2022/07/29 06:39:43;;;;;;;3.20;2.00;;;20.70;99.90;;;;;;5010730;28;20261;-68
2022/07/29 06:42:09;;;;;;;2.57;2.37;;;20.50;99.90;;;;;;5010686;28;20169;-64
2022/07/29 06:44:34;;;;;;;2.10;1.83;;;20.50;99.90;;;;;;5010263;28;20193;-64
2022/07/29 06:47:01;;;;;;;3.10;2.13;;;20.40;99.90;;;;;;5010678;28;20631;-64
2022/07/29 06:49:27;;;;;;;5.87;3.50;;;20.20;99.90;;;;;;5010595;28;20206;-64
2022/07/29 06:51:53;;;;;;;2.00;1.80;;;20.30;99.90;;;;;;5010605;28;20474;-65
2022/07/29 06:54:19;;;;;;;2.30;2.03;;;20.30;99.90;;;;;;5010197;28;20404;-64
2022/07/29 06:56:44;;;;;;;3.13;2.07;;;20.30;99.90;;;;;;5010481;28;20433;-65
2022/07/29 06:59:11;;;;;;;4.27;2.27;;;20.10;99.90;;;;;;5010604;28;20193;-64
2022/07/29 07:01:41;;;;;;;2.13;1.70;;;20.40;99.90;;;;;;5010739;28;20199;-64
2022/07/29 07:04:10;;;;;;;335.60;188.70;;;20.40;99.90;;;;;;5010952;28;20635;-65
2022/07/29 07:06:36;;;;;;;10.23;7.43;;;20.40;99.90;;;;;;5010712;28;20454;-65
2022/07/29 07:09:03;;;;;;;6.40;4.43;;;20.50;99.90;;;;;;5010428;28;20506;-64
2022/07/29 07:11:28;;;;;;;4.70;2.97;;;20.60;99.90;;;;;;5010742;28;20425;-65
2022/07/29 07:13:54;;;;;;;4.23;2.03;;;20.80;99.90;;;;;;5010620;28;20408;-66
2022/07/29 07:16:19;;;;;;;2.20;2.00;;;20.90;99.90;;;;;;5010143;28;20175;-66
2022/07/29 07:18:45;;;;;;;4.30;2.47;;;21.50;99.90;;;;;;5035177;23;20256;-75
2022/07/29 07:21:11;;;;;;;5.87;2.53;;;22.00;99.90;;;;;;5038420;28;20635;-74
2022/07/29 07:23:37;;;;;;;3.93;1.90;;;22.30;99.90;;;;;;5036099;28;20169;-74
2022/07/29 07:26:04;;;;;;;4.30;2.43;;;22.50;99.90;;;;;;5033727;28;20896;-74
2022/07/29 07:28:30;;;;;;;3.07;1.93;;;22.80;99.90;;;;;;5035280;28;20221;-74
2022/07/29 07:30:56;;;;;;;2.27;2.07;;;23.10;99.90;;;;;;5055351;28;20780;-75
2022/07/29 07:33:21;;;;;;;3.47;2.03;;;23.70;99.70;;;;;;5054793;28;20187;-75
2022/07/29 07:35:47;;;;;;;1.93;1.83;;;24.40;98.50;;;;;;5054777;28;20641;-74
2022/07/29 07:38:13;;;;;;;1.63;1.53;;;24.70;96.40;;;;;;5053249;28;20545;-74
2022/07/29 07:40:38;;;;;;;6.47;2.07;;;25.10;96.40;;;;;;5054839;28;20251;-74
2022/07/29 07:43:04;;;;;;;7.00;2.70;;;25.70;95.00;;;;;;5054732;28;20773;-74
2022/07/29 07:45:32;;;;;;;4.60;2.20;;;25.20;94.70;;;;;;5054345;28;20225;-73
2022/07/29 07:47:57;;;;;;;7.93;3.33;;;26.00;92.20;;;;;;5053124;28;20170;-73
2022/07/29 07:50:23;;;;;;;4.27;1.80;;;26.30;91.30;;;;;;5054665;28;20974;-73
2022/07/29 07:52:53;;;;;;;2.43;1.43;;;26.50;90.20;;;;;;5054285;28;20166;-73
2022/07/29 07:55:19;;;;;;;4.50;1.83;;;27.20;88.60;;;;;;5052925;28;20308;-73
2022/07/29 07:57:45;;;;;;;2.13;1.50;;;27.80;85.70;;;;;;5054362;28;20771;-73
2022/07/29 08:00:13;;;;;;;2.10;1.90;;;27.90;82.60;;;;;;5054413;28;20433;-73
2022/07/29 08:02:39;;;;;;;3.70;1.50;;;28.20;80.80;;;;;;5055141;28;20551;-74
2022/07/29 08:05:08;;;;;;;3.90;2.23;;;28.40;78.80;;;;;;5061115;28;20983;-73
2022/07/29 08:07:34;;;;;;;2.50;1.80;;;28.80;77.10;;;;;;5059848;28;20473;-73
2022/07/29 08:09:59;;;;;;;4.40;2.30;;;28.80;76.60;;;;;;5053742;28;20456;-73
2022/07/29 08:12:25;;;;;;;2.83;1.53;;;28.80;73.00;;;;;;5054016;28;20174;-73
2022/07/29 08:14:51;;;;;;;1.40;1.30;;;28.90;72.40;;;;;;5053436;28;20194;-73
2022/07/29 08:17:16;;;;;;;2.07;1.37;;;28.90;69.80;;;;;;5052251;28;20198;-73
2022/07/29 08:19:42;;;;;;;4.47;2.10;;;28.50;70.40;;;;;;5053551;28;20237;-73
2022/07/29 08:22:07;;;;;;;1.63;1.43;;;28.10;72.00;;;;;;5053894;28;20171;-73
2022/07/29 08:27:17;;;;;;;4.93;1.90;;;29.00;68.20;;;;;;5052902;28;20173;-74
2022/07/29 08:29:43;;;;;;;2.27;1.50;;;29.70;66.60;;;;;;5052884;28;20418;-73
2022/07/29 08:32:08;;;;;;;3.00;1.40;;;28.90;66.00;;;;;;5053572;28;20508;-74
2022/07/29 08:34:34;;;;;;;2.20;1.30;;;28.80;66.90;;;;;;5053342;28;20240;-73
2022/07/29 08:36:59;;;;;;;3.13;1.43;;;29.50;65.80;;;;;;5053623;28;20178;-73
2022/07/29 08:39:25;;;;;;;4.17;2.37;;;29.60;64.60;;;;;;5053460;28;20550;-73
2022/07/29 08:41:51;;;;;;;1.77;1.63;;;29.90;63.00;;;;;;5053438;28;20177;-73
2022/07/29 08:44:21;;;;;;;1.70;1.43;;;29.00;62.40;;;;;;5055228;28;20238;-73
2022/07/29 08:46:50;;;;;;;1.83;1.73;;;28.50;63.60;;;;;;5056547;28;20911;-73
2022/07/29 08:49:17;;;;;;;1.40;1.20;;;28.00;64.50;;;;;;5055368;28;20471;-72
2022/07/29 08:51:43;;;;;;;2.13;1.30;;;27.70;64.50;;;;;;5053843;28;20945;-73
2022/07/29 08:54:11;;;;;;;1.40;1.30;;;28.10;62.90;;;;;;5051479;28;20407;-73
2022/07/29 08:56:39;;;;;;;3.03;1.43;;;28.00;62.30;;;;;;5052749;28;20409;-73
2022/07/29 08:59:05;;;;;;;4.60;1.77;;;27.40;63.10;;;;;;5053098;28;20437;-74
2022/07/29 09:01:33;;;;;;;1.60;1.20;;;26.90;65.10;;;;;;5053141;28;20444;-73
2022/07/29 09:04:01;;;;;;;1.63;1.53;;;26.40;66.20;;;;;;5053173;28;20460;-75
2022/07/29 09:06:32;;;;;;;5.43;2.07;;;26.10;68.50;;;;;;5052450;28;20482;-73
2022/07/29 09:08:59;;;;;;;3.77;1.37;;;26.30;68.20;;;;;;5052904;28;20459;-74
2022/07/29 09:11:25;;;;;;;1.53;1.40;;;26.50;68.30;;;;;;5052845;28;20773;-73
2022/07/29 09:13:50;;;;;;;1.23;1.10;;;26.40;68.20;;;;;;5052833;28;20406;-73
2022/07/29 09:16:16;;;;;;;3.93;1.90;;;26.30;67.60;;;;;;5052365;28;20541;-73
2022/07/29 09:18:43;;;;;;;2.27;1.40;;;26.30;68.10;;;;;;5052354;28;20584;-74
2022/07/29 09:24:07;;;;;;;1.87;1.20;;;27.30;65.50;;;;;;5052551;28;20404;-74
2022/07/29 09:26:39;;;;;;;1.80;1.13;;;27.70;65.40;;;;;;5052509;28;20449;-74
2022/07/29 09:29:20;;;;;;;1.53;1.40;;;28.10;63.50;;;;;;5052550;28;20422;-74
2022/07/29 09:31:51;;;;;;;1.70;1.30;;;27.90;64.00;;;;;;5052278;28;20393;-74
2022/07/29 09:34:25;;;;;;;1.67;1.47;;;27.90;62.60;;;;;;5052003;28;20397;-74
2022/07/29 09:36:52;;;;;;;2.80;1.30;;;27.40;63.10;;;;;;5050566;28;20450;-74
2022/07/29 09:39:48;;;;;;;2.23;1.43;;;27.10;63.20;;;;;;5052365;28;20421;-73
2022/07/29 09:42:26;;;;;;;4.03;1.37;;;26.80;64.20;;;;;;5051533;28;20424;-74
2022/07/29 09:44:52;;;;;;;1.73;1.63;;;27.00;64.50;;;;;;5051858;28;20542;-74
2022/07/29 09:47:18;;;;;;;2.20;1.13;;;26.70;63.60;;;;;;5052447;28;20443;-74
2022/07/29 09:49:57;;;;;;;2.23;1.40;;;26.10;64.80;;;;;;5053889;28;20221;-73
2022/07/29 09:52:24;;;;;;;1.80;1.60;;;26.10;65.40;;;;;;5057104;28;20522;-73
2022/07/29 09:54:50;;;;;;;2.73;1.37;;;25.90;64.90;;;;;;5054851;28;20476;-73
2022/07/29 09:57:25;;;;;;;2.00;1.70;;;25.80;64.50;;;;;;5051842;28;20405;-74
2022/07/29 10:00:08;;;;;;;2.77;1.50;;;25.70;65.00;;;;;;5051868;28;20493;-74
2022/07/29 10:02:35;;;;;;;1.40;1.30;;;25.80;65.20;;;;;;5052080;28;20420;-74
2022/07/29 10:05:04;;;;;;;2.47;1.67;;;25.70;65.50;;;;;;5051275;28;20802;-74
2022/07/29 10:07:51;;;;;;;3.30;1.20;;;26.10;65.00;;;;;;5051625;28;20907;-74
2022/07/29 10:10:24;;;;;;;2.87;1.60;;;26.60;63.20;;;;;;5050358;28;20751;-74
2022/07/29 10:12:55;;;;;;;1.77;1.60;;;26.50;62.60;;;;;;5051978;28;20407;-74
2022/07/29 10:15:26;;;;;;;2.63;1.33;;;26.30;62.60;;;;;;5051729;28;20418;-74
2022/07/29 10:17:53;;;;;;;2.53;1.57;;;26.10;61.70;;;;;;5051275;28;20412;-74
2022/07/29 10:20:20;;;;;;;1.10;1.00;;;26.10;61.10;;;;;;5051295;28;20576;-74
2022/07/29 10:22:48;;;;;;;1.33;1.23;;;26.20;60.50;;;;;;5051443;28;20419;-73
2022/07/29 10:25:15;;;;;;;1.77;1.53;;;26.20;59.30;;;;;;5051277;28;20454;-73
2022/07/29 10:27:40;;;;;;;2.10;1.53;;;26.30;59.20;;;;;;5051526;28;20523;-74
2022/07/29 10:30:06;;;;;;;1.40;1.20;;;26.10;59.30;;;;;;5051494;28;20428;-73
2022/07/29 10:32:54;;;;;;;2.70;1.20;;;26.00;59.80;;;;;;5051151;28;20255;-73
2022/07/29 10:35:39;;;;;;;1.83;1.30;;;26.00;60.00;;;;;;5051377;28;20458;-73
2022/07/29 10:38:08;;;;;;;1.23;1.13;;;25.80;59.90;;;;;;5051584;28;20421;-74
2022/07/29 10:43:35;;;;;;;3.13;2.10;;;25.70;59.80;;;;;;5051508;28;20402;-74
2022/07/29 10:46:02;;;;;;;1.13;1.03;;;26.00;60.20;;;;;;5051076;28;21157;-73
2022/07/29 10:48:28;;;;;;;1.30;1.20;;;26.00;59.80;;;;;;5051379;28;20411;-74
2022/07/29 10:51:04;;;;;;;1.40;1.30;;;26.00;60.90;;;;;;5049783;28;20421;-74
2022/07/29 10:53:50;;;;;;;1.43;1.30;;;26.30;60.50;;;;;;5053822;28;20404;-74
2022/07/29 10:56:34;;;;;;;1.97;1.53;;;26.20;60.70;;;;;;5055076;28;20401;-73
2022/07/29 10:59:19;;;;;;;1.43;1.27;;;26.10;59.90;;;;;;5055148;28;20426;-74
2022/07/29 11:01:45;;;;;;;1.53;1.17;;;26.30;60.00;;;;;;5054959;28;20410;-73
2022/07/29 11:04:10;;;;;;;3.53;1.53;;;26.50;59.50;;;;;;5055203;28;20437;-74
2022/07/29 11:06:58;;;;;;;2.20;1.33;;;26.30;59.80;;;;;;5054909;28;20478;-74
2022/07/29 11:09:23;;;;;;;1.37;1.27;;;26.40;59.60;;;;;;5053738;28;20190;-73
2022/07/29 11:11:49;;;;;;;2.13;1.50;;;26.40;59.40;;;;;;5055304;28;20449;-73
2022/07/29 11:14:17;;;;;;;3.47;1.13;;;26.30;59.20;;;;;;5055419;28;20177;-73
2022/07/29 11:17:04;;;;;;;1.30;1.20;;;26.40;59.40;;;;;;5054614;28;20162;-73
2022/07/29 11:19:30;;;;;;;3.13;2.10;;;26.30;59.00;;;;;;5055074;28;20436;-74
2022/07/29 11:21:56;;;;;;;1.33;1.10;;;26.30;59.70;;;;;;5055125;28;20999;-74
2022/07/29 11:24:25;;;;;;;2.40;1.30;;;26.70;60.00;;;;;;5054505;28;20229;-74
2022/07/29 11:27:10;;;;;;;1.70;1.60;;;26.90;59.80;;;;;;5054310;28;20754;-74
2022/07/29 11:29:47;;;;;;;2.60;2.40;;;27.00;59.00;;;;;;5054673;28;20419;-74
2022/07/29 11:32:15;;;;;;;2.03;1.70;;;26.90;60.00;;;;;;5054812;28;20424;-73
2022/07/29 11:34:41;;;;;;;3.83;1.50;;;27.30;59.50;;;;;;5054794;28;20488;-74
2022/07/29 11:37:16;;;;;;;3.60;1.80;;;27.40;60.50;;;;;;5057996;28;20457;-73
2022/07/29 11:39:56;;;;;;;2.93;1.40;;;27.30;59.70;;;;;;5061659;28;20813;-74
2022/07/29 11:42:24;;;;;;;1.47;1.37;;;27.30;59.70;;;;;;5058136;28;20407;-73
2022/07/29 11:45:10;;;;;;;2.80;1.63;;;27.40;60.00;;;;;;5057589;28;20484;-74
2022/07/29 11:47:37;;;;;;;5.70;1.90;;;27.70;59.30;;;;;;5058699;28;20427;-73
2022/07/29 11:50:05;;;;;;;1.53;1.43;;;27.50;59.90;;;;;;5060067;28;20454;-74
2022/07/29 11:52:44;;;;;;;4.43;1.73;;;27.10;60.40;;;;;;5061667;28;20414;-73
2022/07/29 11:55:12;;;;;;;2.40;1.60;;;27.10;62.10;;;;;;5058974;28;20420;-73
2022/07/29 11:57:47;;;;;;;1.57;1.47;;;27.10;61.60;;;;;;5060512;28;20417;-74
2022/07/29 12:00:30;;;;;;;2.63;2.00;;;27.00;61.60;;;;;;5062534;28;20469;-74
2022/07/29 12:03:00;;;;;;;1.73;1.50;;;26.90;63.10;;;;;;5069003;28;20412;-73
2022/07/29 12:05:39;;;;;;;3.83;1.63;;;26.90;62.10;;;;;;5053283;28;20452;-73
2022/07/29 12:08:06;;;;;;;2.30;2.10;;;26.70;63.20;;;;;;5054189;28;20418;-73
2022/07/29 12:10:32;;;;;;;4.80;2.07;;;26.80;64.20;;;;;;5053670;28;20459;-74
2022/07/29 12:12:57;;;;;;;2.40;1.67;;;26.80;65.30;;;;;;5053835;28;20436;-74
2022/07/29 12:15:23;;;;;;;4.23;2.50;;;27.00;65.50;;;;;;5053338;28;20187;-74
2022/07/29 12:17:49;;;;;;;2.10;1.90;;;27.00;66.40;;;;;;5053655;28;20282;-74
2022/07/29 12:20:26;;;;;;;4.50;2.23;;;27.00;65.50;;;;;;5053773;28;20540;-74
2022/07/29 12:22:54;;;;;;;2.43;2.23;;;27.00;66.30;;;;;;5053675;28;20633;-74
2022/07/29 12:25:20;;;;;;;1.80;1.70;;;27.10;66.90;;;;;;5053440;28;20539;-74
2022/07/29 12:27:47;;;;;;;2.80;2.50;;;27.10;68.00;;;;;;5053645;28;20411;-74
2022/07/29 12:30:15;;;;;;;3.70;2.17;;;26.90;68.50;;;;;;5053536;28;20946;-74
2022/07/29 12:32:46;;;;;;;4.00;2.40;;;26.80;69.20;;;;;;5053380;28;20981;-74
2022/07/29 12:35:15;;;;;;;2.00;1.73;;;26.90;70.00;;;;;;5053233;28;20457;-75
2022/07/29 12:37:42;;;;;;;2.00;1.80;;;27.20;70.00;;;;;;5053109;28;20470;-74
2022/07/29 12:40:10;;;;;;;2.13;1.93;;;27.30;70.10;;;;;;5053146;28;20440;-73
2022/07/29 12:42:37;;;;;;;3.07;1.90;;;27.00;70.50;;;;;;5052951;28;20511;-74
2022/07/29 12:45:03;;;;;;;6.83;2.30;;;26.90;70.50;;;;;;5052603;28;20454;-73
2022/07/29 12:47:29;;;;;;;2.97;2.30;;;27.20;69.70;;;;;;5052849;28;20408;-73
2022/07/29 12:50:17;;;;;;;2.67;2.00;;;27.20;68.20;;;;;;5052833;28;20912;-74
2022/07/29 12:52:43;;;;;;;2.87;2.57;;;27.10;69.40;;;;;;5053016;28;20406;-74
2022/07/29 12:55:09;;;;;;;2.27;2.03;;;27.50;69.90;;;;;;5052781;28;20419;-73
2022/07/29 12:57:50;;;;;;;1.87;1.77;;;27.70;69.00;;;;;;5052858;28;20784;-72
2022/07/29 13:00:16;;;;;;;3.30;2.60;;;27.70;68.80;;;;;;5052754;28;20663;-72
2022/07/29 13:02:43;;;;;;;4.00;2.03;;;27.50;69.80;;;;;;5052598;28;20533;-72